Grande San Paolo — IBNO — position and weather

sailwx.info

Track history (hours):
 
Tides and Currents Weather Stations Pressure Air Temp Water Temp Dewpoint Dewpoint Depression Visibility Wind Speed Wind Dir Waves Ship Positions

Grande San Paolo

Last reported at 2017-Nov-17 18:56 UTC. Time now 2017-Nov-17 19:28 UTC.
Position N 28°39' W 013°26'.

Length 214 m; draft 9.6 m.

Type: Ship (hazmat cat D). MMSI: 247091500.

Date/timePositionNaut miles runAvg speedWind from/ knotsBaromVisibWave heightAir tempDewpointWater temp
2017-Nov-17 18:56N 28°39' W 013°26'715.3
2017-Nov-17 18:30N 28°45' W 013°23'815.5
2017-Nov-17 17:58N 28°52' W 013°19'1415.2
2017-Nov-17 17:02N 29°05' W 013°12'115.0
2017-Nov-17 16:59N 29°06' W 013°12'5214.6
2017-Nov-17 13:28N 29°48' W 012°38'1314.8
2017-Nov-17 12:35N 29°58' W 012°29'  
2017-Nov-15 07:58N 37°14' W 009°43'816.4
2017-Nov-15 07:31N 37°21' W 009°41'816.5
2017-Nov-15 07:01N 37°29' W 009°39'816.5
2017-Nov-15 06:31N 37°37' W 009°37'816.5
2017-Nov-15 06:01N 37°46' W 009°36'816.5
2017-Nov-15 05:31N 37°54' W 009°35'816.5
2017-Nov-15 05:01N 38°02' W 009°32'816.4
2017-Nov-15 04:31N 38°10' W 009°29'816.5
2017-Nov-15 04:01N 38°18' W 009°28'816.4
2017-Nov-15 03:30N 38°26' W 009°26'816.3
2017-Nov-15 03:01N 38°34' W 009°26'713.5
2017-Nov-15 02:30N 38°39' W 009°20'611.8
2017-Nov-15 02:00N 38°41' W 009°13'511.0
2017-Nov-15 01:30N 38°43' W 009°06'0 0.2
2017-Nov-15 01:00N 38°44' W 009°06'0 0.0
2017-Nov-15 00:30N 38°44' W 009°06'0 0.0
2017-Nov-14 23:57N 38°44' W 009°06'0 0.0
2017-Nov-14 23:30N 38°44' W 009°06'0 0.0
2017-Nov-14 23:00N 38°44' W 009°06'0 0.0
2017-Nov-14 22:30N 38°44' W 009°06'0 0.0
2017-Nov-14 22:00N 38°44' W 009°06'0 0.0
2017-Nov-14 21:30N 38°44' W 009°06'0 0.0
2017-Nov-14 21:00N 38°44' W 009°06'0 0.0
2017-Nov-14 20:30N 38°44' W 009°06'0 0.0
2017-Nov-14 20:00N 38°44' W 009°06'0 0.0
2017-Nov-14 19:30N 38°44' W 009°06'0 0.0
2017-Nov-14 18:57N 38°44' W 009°06'0 0.0
2017-Nov-14 18:30N 38°44' W 009°06'0 0.0
2017-Nov-14 18:00N 38°44' W 009°06'0 0.0
2017-Nov-14 17:27N 38°44' W 009°06'0 0.0
2017-Nov-14 17:00N 38°44' W 009°06'0 0.0
2017-Nov-14 16:30N 38°44' W 009°06'0 0.0
2017-Nov-14 15:57N 38°44' W 009°06'0 0.0
2017-Nov-14 15:30N 38°44' W 009°06'0 0.0
2017-Nov-14 14:54N 38°44' W 009°06'0 0.0
2017-Nov-14 14:30N 38°44' W 009°06'0 0.0
2017-Nov-14 13:57N 38°44' W 009°06'0 0.0
2017-Nov-14 13:30N 38°44' W 009°06'0 0.0
2017-Nov-14 12:54N 38°44' W 009°06'0 0.0
2017-Nov-14 12:30N 38°44' W 009°06'0 0.0
2017-Nov-14 12:00N 38°44' W 009°06'0 0.0
2017-Nov-14 11:30N 38°44' W 009°06'0 0.0
2017-Nov-14 11:00N 38°44' W 009°06'0 0.0
2017-Nov-14 10:31N 38°44' W 009°06'0 0.6
2017-Nov-14 10:00N 38°43' W 009°06'4 7.9
2017-Nov-14 09:29N 38°41' W 009°11'714.1
2017-Nov-14 09:00N 38°40' W 009°19'510.2
2017-Nov-14 08:31N 38°37' W 009°25'611.9
2017-Nov-14 08:00N 38°38' W 009°32'816.3
2017-Nov-14 07:30N 38°35' W 009°42'816.3
2017-Nov-14 07:00N 38°33' W 009°52'816.5
2017-Nov-14 06:30N 38°33' W 010°03'916.2
2017-Nov-14 05:59N 38°41' W 010°06'816.6
2017-Nov-14 05:30N 38°49' W 010°06'816.7
2017-Nov-14 05:01N 38°57' W 010°06'816.8
2017-Nov-14 04:30N 39°06' W 010°06'816.7
2017-Nov-14 04:00N 39°14' W 010°07'816.4
2017-Nov-14 03:30N 39°22' W 010°06'816.2
2017-Nov-14 03:00N 39°31' W 010°06'816.5
2017-Nov-14 02:30N 39°39' W 010°06'816.2
2017-Nov-14 02:00N 39°47' W 010°05'816.7
2017-Nov-14 01:30N 39°54' W 010°00'1516.8
2017-Nov-14 00:37N 40°07' W 009°50'216.7
2017-Nov-14 00:28N 40°09' W 009°48'816.8
2017-Nov-14 00:00N 40°16' W 009°43'916.8
2017-Nov-13 23:29N 40°23' W 009°36'816.5
2017-Nov-13 23:00N 40°30' W 009°31'47710.2
2017-Nov-12 00:02N 48°07' W 006°22'114.9
2017-Nov-11 23:58N 48°08' W 006°21'815.5
2017-Nov-11 23:26N 48°15' W 006°15'3015.0
2017-Nov-11 21:25N 48°43' W 005°56'1014.2
2017-Nov-11 20:44N 48°51' W 005°49'413.1
2017-Nov-11 20:24N 48°55' W 005°45'613.1
2017-Nov-11 19:56N 48°58' W 005°37'1413.3
2017-Nov-11 18:55N 49°04' W 005°19'4613.1
2017-Nov-11 15:25N 49°27' W 004°18'2013.6
2017-Nov-11 13:55N 49°37' W 003°51'613.4
2017-Nov-11 13:28N 49°40' W 003°43'613.4
2017-Nov-11 13:00N 49°43' W 003°34'713.3
2017-Nov-11 12:30N 49°47' W 003°26'713.2
2017-Nov-11 12:00N 49°51' W 003°17'713.3
2017-Nov-11 11:31N 49°54' W 003°09'713.4
2017-Nov-11 11:00N 49°58' W 002°60'713.5
2017-Nov-11 10:30N 50°01' W 002°50'713.7
2017-Nov-11 10:00N 50°02' W 002°40'714.1
2017-Nov-11 09:29N 50°04' W 002°29'1714.9
2017-Nov-11 08:22N 50°08' W 002°03'615.6
2017-Nov-11 08:00N 50°09' W 001°55'815.9
2017-Nov-11 07:30N 50°12' W 001°43'816.0
2017-Nov-11 07:00N 50°14' W 001°31'815.9
2017-Nov-11 06:30N 50°16' W 001°19'815.7
2017-Nov-11 06:00N 50°18' W 001°07'815.4
2017-Nov-11 05:30N 50°21' W 000°56'1314.8
2017-Nov-11 04:39N 50°24' W 000°37'214.4
2017-Nov-11 04:30N 50°24' W 000°34'714.4
2017-Nov-11 04:00N 50°26' W 000°23'714.2
2017-Nov-11 03:29N 50°28' W 000°11'714.0
2017-Nov-11 03:00N 50°30' W 000°01'713.8
2017-Nov-11 02:30N 50°32' E 000°09'714.1
2017-Nov-11 02:01N 50°34' E 000°20'714.6
2017-Nov-11 01:30N 50°35' E 000°31'714.9
2017-Nov-11 01:00N 50°38' E 000°42'815.4
2017-Nov-11 00:30N 50°42' E 000°52'816.3
2017-Nov-11 00:00N 50°47' E 001°03'917.0
2017-Nov-10 23:30N 50°52' E 001°13'918.0
2017-Nov-10 23:00N 50°59' E 001°23'918.2
2017-Nov-10 22:30N 51°05' E 001°33'917.7
2017-Nov-10 22:01N 51°12' E 001°43'816.6
2017-Nov-10 21:30N 51°19' E 001°50'815.6
2017-Nov-10 21:00N 51°25' E 001°57'815.1
2017-Nov-10 20:31N 51°31' E 002°05'714.5
2017-Nov-10 20:01N 51°36' E 002°13'814.1
2017-Nov-10 19:27N 51°42' E 002°21'613.6
2017-Nov-10 19:00N 51°47' E 002°28'9714.3
2017-Nov-10 12:15N 53°02' E 004°08'414.7
2017-Nov-10 12:00N 53°04' E 004°12'13213.9
2017-Nov-10 02:30N 54°00' E 007°33'814.2
2017-Nov-10 01:58N 54°02' E 007°45'714.4
2017-Nov-10 01:30N 54°01' E 007°57'714.4
2017-Nov-10 01:00N 54°01' E 008°09'611.1
2017-Nov-10 00:30N 53°60' E 008°18'612.7
2017-Nov-10 00:00N 53°59' E 008°29'613.2
2017-Nov-09 23:30N 53°56' E 008°39'815.9
2017-Nov-09 23:00N 53°50' E 008°48'816.7
2017-Nov-09 22:30N 53°52' E 009°02'611.8
2017-Nov-09 22:00N 53°53' E 009°12'714.5
2017-Nov-09 21:30N 53°49' E 009°22'815.7
2017-Nov-09 21:01N 53°42' E 009°29'713.4
2017-Nov-09 20:31N 53°37' E 009°34'612.9
2017-Nov-09 20:00N 53°34' E 009°44'510.6
2017-Nov-09 19:30N 53°33' E 009°53'4 7.2
2017-Nov-09 19:00N 53°32' E 009°59'1 1.4
2017-Nov-09 18:28N 53°32' E 009°60'0 0.0
2017-Nov-09 17:58N 53°32' E 009°60'0 0.0
2017-Nov-09 17:28N 53°32' E 009°60'0 0.0
2017-Nov-09 16:58N 53°32' E 009°60'0 0.0
2017-Nov-09 16:28N 53°32' E 009°60'0 0.0
2017-Nov-09 15:58N 53°32' E 009°60'0 0.0
2017-Nov-09 15:28N 53°32' E 009°60'0 0.0
2017-Nov-09 14:58N 53°32' E 009°60'0 0.0
2017-Nov-09 14:28N 53°32' E 009°60'0 0.0
2017-Nov-09 13:58N 53°32' E 009°60'0 0.0
2017-Nov-09 13:28N 53°32' E 009°60'0 0.0
2017-Nov-09 12:58N 53°32' E 009°60'0 0.0
2017-Nov-09 12:28N 53°32' E 009°60'0 0.0
2017-Nov-09 11:58N 53°32' E 009°60'0 0.0
2017-Nov-09 11:28N 53°32' E 009°60'0 0.0
2017-Nov-09 10:58N 53°32' E 009°60'0 0.0
2017-Nov-09 10:28N 53°32' E 009°60'0 0.0
2017-Nov-09 09:58N 53°32' E 009°60'0 0.0
2017-Nov-09 09:28N 53°32' E 009°60'0 0.0
2017-Nov-09 08:58N 53°32' E 009°60'0 0.0
2017-Nov-09 08:28N 53°32' E 009°60'0 0.0
2017-Nov-09 07:58N 53°32' E 009°60'0 0.0
2017-Nov-09 07:28N 53°32' E 009°60'0 0.0
2017-Nov-09 06:58N 53°32' E 009°60'0 0.0
2017-Nov-09 06:28N 53°32' E 009°60'0 0.0
2017-Nov-09 05:58N 53°32' E 009°60'0 0.0
2017-Nov-09 05:28N 53°32' E 009°60'0 0.0
2017-Nov-09 04:58N 53°32' E 009°60'0 0.0
2017-Nov-09 04:28N 53°32' E 009°60'0 0.0
2017-Nov-09 03:58N 53°32' E 009°60'0 0.0
2017-Nov-09 03:28N 53°32' E 009°60'0 0.0
2017-Nov-09 02:58N 53°32' E 009°60'0 0.0
2017-Nov-09 02:28N 53°32' E 009°60'0 0.0
2017-Nov-09 01:58N 53°32' E 009°60'0 0.0
2017-Nov-09 01:28N 53°32' E 009°60'0 0.0
2017-Nov-09 00:58N 53°32' E 009°60'0 0.0
2017-Nov-09 00:28N 53°32' E 009°60'0 0.0
2017-Nov-08 23:58N 53°32' E 009°60'0 0.0
2017-Nov-08 23:28N 53°32' E 009°60'0 0.0
2017-Nov-08 22:58N 53°32' E 009°60'0 0.0
2017-Nov-08 22:28N 53°32' E 009°60'0 0.0
2017-Nov-08 21:58N 53°32' E 009°60'0 0.0
2017-Nov-08 21:28N 53°32' E 009°60'0 0.0
2017-Nov-08 20:58N 53°32' E 009°60'0 0.0
2017-Nov-08 20:28N 53°32' E 009°60'0 0.0
2017-Nov-08 19:58N 53°32' E 009°60'0 0.0
2017-Nov-08 19:28N 53°32' E 009°60'0 0.0
2017-Nov-08 18:58N 53°32' E 009°60'0 0.0
2017-Nov-08 18:28N 53°32' E 009°60'0 0.0
2017-Nov-08 17:58N 53°32' E 009°60'0 0.0
2017-Nov-08 17:28N 53°32' E 009°60'0 0.0
2017-Nov-08 16:58N 53°32' E 009°60'0 0.0
2017-Nov-08 16:28N 53°32' E 009°60'0 0.0
2017-Nov-08 15:58N 53°32' E 009°60'0 0.0
2017-Nov-08 15:28N 53°32' E 009°60'0 0.0
2017-Nov-08 14:58N 53°32' E 009°60'0 0.0
2017-Nov-08 14:28N 53°32' E 009°60'0 0.0
2017-Nov-08 13:58N 53°32' E 009°60'0 0.0
2017-Nov-08 13:28N 53°32' E 009°60'0 0.0
2017-Nov-08 12:58N 53°32' E 009°60'0 0.0
2017-Nov-08 12:28N 53°32' E 009°60'0 0.0
2017-Nov-08 11:58N 53°32' E 009°60'0 0.0
2017-Nov-08 11:28N 53°32' E 009°60'0 0.0
2017-Nov-08 10:58N 53°32' E 009°60'0 0.0
2017-Nov-08 10:28N 53°32' E 009°60'0 0.0
2017-Nov-08 10:01N 53°32' E 009°60'1 2.5
2017-Nov-08 09:31N 53°33' E 009°58'4 8.4
2017-Nov-08 09:01N 53°33' E 009°51'5 9.2
2017-Nov-08 08:31N 53°34' E 009°44'611.8
2017-Nov-08 08:01N 53°36' E 009°35'611.8
2017-Nov-08 07:31N 53°42' E 009°30'612.6
2017-Nov-08 07:01N 53°47' E 009°23'611.9
2017-Nov-08 06:31N 53°52' E 009°18'612.4
2017-Nov-08 06:01N 53°53' E 009°08'4 8.8
2017-Nov-08 05:31N 53°51' E 009°01'714.4
2017-Nov-08 05:00N 53°50' E 008°49'612.2
2017-Nov-08 04:30N 53°54' E 008°41'713.2
2017-Nov-08 04:00N 53°58' E 008°32'714.1
2017-Nov-08 03:30N 53°59' E 008°20'613.0
2017-Nov-08 03:00N 53°59' E 008°09'714.9
2017-Nov-08 02:30N 53°59' E 007°56'816.1
2017-Nov-08 02:00N 53°57' E 007°43'5916.7
2017-Nov-07 22:29N 53°43' E 006°06'2017.3
2017-Nov-07 21:19N 53°36' E 005°34'617.2
2017-Nov-07 21:00N 53°34' E 005°25'1417.1
2017-Nov-07 20:11N 53°30' E 005°03'317.2
2017-Nov-07 20:00N 53°28' E 004°58'917.3
2017-Nov-07 19:29N 53°24' E 004°45'  
Track history (hours):
 
Tides and Currents Weather Stations Pressure Air Temp Water Temp Dewpoint Dewpoint Depression Visibility Wind Speed Wind Dir Waves Ship Positions

Grande San Paolo

Last reported at 2017-Nov-17 18:56 UTC. Time now 2017-Nov-17 19:28 UTC.
Position N 28°39' W 013°26'.

Length 214 m; draft 9.6 m.

Type: Ship (hazmat cat D). MMSI: 247091500.

Date/timePositionNaut miles runAvg speedWind from/ knotsBaromVisibWave heightAir tempDewpointWater temp
2017-Nov-17 18:56N 28°39' W 013°26'715.3
2017-Nov-17 18:30N 28°45' W 013°23'815.5
2017-Nov-17 17:58N 28°52' W 013°19'1415.2
2017-Nov-17 17:02N 29°05' W 013°12'115.0
2017-Nov-17 16:59N 29°06' W 013°12'5214.6
2017-Nov-17 13:28N 29°48' W 012°38'1314.8
2017-Nov-17 12:35N 29°58' W 012°29'  
2017-Nov-15 07:58N 37°14' W 009°43'816.4
2017-Nov-15 07:31N 37°21' W 009°41'816.5
2017-Nov-15 07:01N 37°29' W 009°39'816.5
2017-Nov-15 06:31N 37°37' W 009°37'816.5
2017-Nov-15 06:01N 37°46' W 009°36'816.5
2017-Nov-15 05:31N 37°54' W 009°35'816.5
2017-Nov-15 05:01N 38°02' W 009°32'816.4
2017-Nov-15 04:31N 38°10' W 009°29'816.5
2017-Nov-15 04:01N 38°18' W 009°28'816.4
2017-Nov-15 03:30N 38°26' W 009°26'816.3
2017-Nov-15 03:01N 38°34' W 009°26'713.5
2017-Nov-15 02:30N 38°39' W 009°20'611.8
2017-Nov-15 02:00N 38°41' W 009°13'511.0
2017-Nov-15 01:30N 38°43' W 009°06'0 0.2
2017-Nov-15 01:00N 38°44' W 009°06'0 0.0
2017-Nov-15 00:30N 38°44' W 009°06'0 0.0
2017-Nov-14 23:57N 38°44' W 009°06'0 0.0
2017-Nov-14 23:30N 38°44' W 009°06'0 0.0
2017-Nov-14 23:00N 38°44' W 009°06'0 0.0
2017-Nov-14 22:30N 38°44' W 009°06'0 0.0
2017-Nov-14 22:00N 38°44' W 009°06'0 0.0
2017-Nov-14 21:30N 38°44' W 009°06'0 0.0
2017-Nov-14 21:00N 38°44' W 009°06'0 0.0
2017-Nov-14 20:30N 38°44' W 009°06'0 0.0
2017-Nov-14 20:00N 38°44' W 009°06'0 0.0
2017-Nov-14 19:30N 38°44' W 009°06'0 0.0
2017-Nov-14 18:57N 38°44' W 009°06'0 0.0
2017-Nov-14 18:30N 38°44' W 009°06'0 0.0
2017-Nov-14 18:00N 38°44' W 009°06'0 0.0
2017-Nov-14 17:27N 38°44' W 009°06'0 0.0
2017-Nov-14 17:00N 38°44' W 009°06'0 0.0
2017-Nov-14 16:30N 38°44' W 009°06'0 0.0
2017-Nov-14 15:57N 38°44' W 009°06'0 0.0
2017-Nov-14 15:30N 38°44' W 009°06'0 0.0
2017-Nov-14 14:54N 38°44' W 009°06'0 0.0
2017-Nov-14 14:30N 38°44' W 009°06'0 0.0
2017-Nov-14 13:57N 38°44' W 009°06'0 0.0
2017-Nov-14 13:30N 38°44' W 009°06'0 0.0
2017-Nov-14 12:54N 38°44' W 009°06'0 0.0
2017-Nov-14 12:30N 38°44' W 009°06'0 0.0
2017-Nov-14 12:00N 38°44' W 009°06'0 0.0
2017-Nov-14 11:30N 38°44' W 009°06'0 0.0
2017-Nov-14 11:00N 38°44' W 009°06'0 0.0
2017-Nov-14 10:31N 38°44' W 009°06'0 0.6
2017-Nov-14 10:00N 38°43' W 009°06'4 7.9
2017-Nov-14 09:29N 38°41' W 009°11'714.1
2017-Nov-14 09:00N 38°40' W 009°19'510.2
2017-Nov-14 08:31N 38°37' W 009°25'611.9
2017-Nov-14 08:00N 38°38' W 009°32'816.3
2017-Nov-14 07:30N 38°35' W 009°42'816.3
2017-Nov-14 07:00N 38°33' W 009°52'816.5
2017-Nov-14 06:30N 38°33' W 010°03'916.2
2017-Nov-14 05:59N 38°41' W 010°06'816.6
2017-Nov-14 05:30N 38°49' W 010°06'816.7
2017-Nov-14 05:01N 38°57' W 010°06'816.8
2017-Nov-14 04:30N 39°06' W 010°06'816.7
2017-Nov-14 04:00N 39°14' W 010°07'816.4
2017-Nov-14 03:30N 39°22' W 010°06'816.2
2017-Nov-14 03:00N 39°31' W 010°06'816.5
2017-Nov-14 02:30N 39°39' W 010°06'816.2
2017-Nov-14 02:00N 39°47' W 010°05'816.7
2017-Nov-14 01:30N 39°54' W 010°00'1516.8
2017-Nov-14 00:37N 40°07' W 009°50'216.7
2017-Nov-14 00:28N 40°09' W 009°48'816.8
2017-Nov-14 00:00N 40°16' W 009°43'916.8
2017-Nov-13 23:29N 40°23' W 009°36'816.5
2017-Nov-13 23:00N 40°30' W 009°31'47710.2
2017-Nov-12 00:02N 48°07' W 006°22'114.9
2017-Nov-11 23:58N 48°08' W 006°21'815.5
2017-Nov-11 23:26N 48°15' W 006°15'3015.0
2017-Nov-11 21:25N 48°43' W 005°56'1014.2
2017-Nov-11 20:44N 48°51' W 005°49'413.1
2017-Nov-11 20:24N 48°55' W 005°45'613.1
2017-Nov-11 19:56N 48°58' W 005°37'1413.3
2017-Nov-11 18:55N 49°04' W 005°19'4613.1
2017-Nov-11 15:25N 49°27' W 004°18'2013.6
2017-Nov-11 13:55N 49°37' W 003°51'613.4
2017-Nov-11 13:28N 49°40' W 003°43'613.4
2017-Nov-11 13:00N 49°43' W 003°34'713.3
2017-Nov-11 12:30N 49°47' W 003°26'713.2
2017-Nov-11 12:00N 49°51' W 003°17'713.3
2017-Nov-11 11:31N 49°54' W 003°09'713.4
2017-Nov-11 11:00N 49°58' W 002°60'713.5
2017-Nov-11 10:30N 50°01' W 002°50'713.7
2017-Nov-11 10:00N 50°02' W 002°40'714.1
2017-Nov-11 09:29N 50°04' W 002°29'1714.9
2017-Nov-11 08:22N 50°08' W 002°03'615.6
2017-Nov-11 08:00N 50°09' W 001°55'815.9
2017-Nov-11 07:30N 50°12' W 001°43'816.0
2017-Nov-11 07:00N 50°14' W 001°31'815.9
2017-Nov-11 06:30N 50°16' W 001°19'815.7
2017-Nov-11 06:00N 50°18' W 001°07'815.4
2017-Nov-11 05:30N 50°21' W 000°56'1314.8
2017-Nov-11 04:39N 50°24' W 000°37'214.4
2017-Nov-11 04:30N 50°24' W 000°34'714.4
2017-Nov-11 04:00N 50°26' W 000°23'714.2
2017-Nov-11 03:29N 50°28' W 000°11'714.0
2017-Nov-11 03:00N 50°30' W 000°01'713.8
2017-Nov-11 02:30N 50°32' E 000°09'714.1
2017-Nov-11 02:01N 50°34' E 000°20'714.6
2017-Nov-11 01:30N 50°35' E 000°31'714.9
2017-Nov-11 01:00N 50°38' E 000°42'815.4
2017-Nov-11 00:30N 50°42' E 000°52'816.3
2017-Nov-11 00:00N 50°47' E 001°03'917.0
2017-Nov-10 23:30N 50°52' E 001°13'918.0
2017-Nov-10 23:00N 50°59' E 001°23'918.2
2017-Nov-10 22:30N 51°05' E 001°33'917.7
2017-Nov-10 22:01N 51°12' E 001°43'816.6
2017-Nov-10 21:30N 51°19' E 001°50'815.6
2017-Nov-10 21:00N 51°25' E 001°57'815.1
2017-Nov-10 20:31N 51°31' E 002°05'714.5
2017-Nov-10 20:01N 51°36' E 002°13'814.1
2017-Nov-10 19:27N 51°42' E 002°21'613.6
2017-Nov-10 19:00N 51°47' E 002°28'9714.3
2017-Nov-10 12:15N 53°02' E 004°08'414.7
2017-Nov-10 12:00N 53°04' E 004°12'13213.9
2017-Nov-10 02:30N 54°00' E 007°33'814.2
2017-Nov-10 01:58N 54°02' E 007°45'714.4
2017-Nov-10 01:30N 54°01' E 007°57'714.4
2017-Nov-10 01:00N 54°01' E 008°09'611.1
2017-Nov-10 00:30N 53°60' E 008°18'612.7
2017-Nov-10 00:00N 53°59' E 008°29'613.2
2017-Nov-09 23:30N 53°56' E 008°39'815.9
2017-Nov-09 23:00N 53°50' E 008°48'816.7
2017-Nov-09 22:30N 53°52' E 009°02'611.8
2017-Nov-09 22:00N 53°53' E 009°12'714.5
2017-Nov-09 21:30N 53°49' E 009°22'815.7
2017-Nov-09 21:01N 53°42' E 009°29'713.4
2017-Nov-09 20:31N 53°37' E 009°34'612.9
2017-Nov-09 20:00N 53°34' E 009°44'510.6
2017-Nov-09 19:30N 53°33' E 009°53'4 7.2
2017-Nov-09 19:00N 53°32' E 009°59'1 1.4
2017-Nov-09 18:28N 53°32' E 009°60'0 0.0
2017-Nov-09 17:58N 53°32' E 009°60'0 0.0
2017-Nov-09 17:28N 53°32' E 009°60'0 0.0
2017-Nov-09 16:58N 53°32' E 009°60'0 0.0
2017-Nov-09 16:28N 53°32' E 009°60'0 0.0
2017-Nov-09 15:58N 53°32' E 009°60'0 0.0
2017-Nov-09 15:28N 53°32' E 009°60'0 0.0
2017-Nov-09 14:58N 53°32' E 009°60'0 0.0
2017-Nov-09 14:28N 53°32' E 009°60'0 0.0
2017-Nov-09 13:58N 53°32' E 009°60'0 0.0
2017-Nov-09 13:28N 53°32' E 009°60'0 0.0
2017-Nov-09 12:58N 53°32' E 009°60'0 0.0
2017-Nov-09 12:28N 53°32' E 009°60'0 0.0
2017-Nov-09 11:58N 53°32' E 009°60'0 0.0
2017-Nov-09 11:28N 53°32' E 009°60'0 0.0
2017-Nov-09 10:58N 53°32' E 009°60'0 0.0
2017-Nov-09 10:28N 53°32' E 009°60'0 0.0
2017-Nov-09 09:58N 53°32' E 009°60'0 0.0
2017-Nov-09 09:28N 53°32' E 009°60'0 0.0
2017-Nov-09 08:58N 53°32' E 009°60'0 0.0
2017-Nov-09 08:28N 53°32' E 009°60'0 0.0
2017-Nov-09 07:58N 53°32' E 009°60'0 0.0
2017-Nov-09 07:28N 53°32' E 009°60'0 0.0
2017-Nov-09 06:58N 53°32' E 009°60'0 0.0
2017-Nov-09 06:28N 53°32' E 009°60'0 0.0
2017-Nov-09 05:58N 53°32' E 009°60'0 0.0
2017-Nov-09 05:28N 53°32' E 009°60'0 0.0
2017-Nov-09 04:58N 53°32' E 009°60'0 0.0
2017-Nov-09 04:28N 53°32' E 009°60'0 0.0
2017-Nov-09 03:58N 53°32' E 009°60'0 0.0
2017-Nov-09 03:28N 53°32' E 009°60'0 0.0
2017-Nov-09 02:58N 53°32' E 009°60'0 0.0
2017-Nov-09 02:28N 53°32' E 009°60'0 0.0
2017-Nov-09 01:58N 53°32' E 009°60'0 0.0
2017-Nov-09 01:28N 53°32' E 009°60'0 0.0
2017-Nov-09 00:58N 53°32' E 009°60'0 0.0
2017-Nov-09 00:28N 53°32' E 009°60'0 0.0
2017-Nov-08 23:58N 53°32' E 009°60'0 0.0
2017-Nov-08 23:28N 53°32' E 009°60'0 0.0
2017-Nov-08 22:58N 53°32' E 009°60'0 0.0
2017-Nov-08 22:28N 53°32' E 009°60'0 0.0
2017-Nov-08 21:58N 53°32' E 009°60'0 0.0
2017-Nov-08 21:28N 53°32' E 009°60'0 0.0
2017-Nov-08 20:58N 53°32' E 009°60'0 0.0
2017-Nov-08 20:28N 53°32' E 009°60'0 0.0
2017-Nov-08 19:58N 53°32' E 009°60'0 0.0
2017-Nov-08 19:28N 53°32' E 009°60'0 0.0
2017-Nov-08 18:58N 53°32' E 009°60'0 0.0
2017-Nov-08 18:28N 53°32' E 009°60'0 0.0
2017-Nov-08 17:58N 53°32' E 009°60'0 0.0
2017-Nov-08 17:28N 53°32' E 009°60'0 0.0
2017-Nov-08 16:58N 53°32' E 009°60'0 0.0
2017-Nov-08 16:28N 53°32' E 009°60'0 0.0
2017-Nov-08 15:58N 53°32' E 009°60'0 0.0
2017-Nov-08 15:28N 53°32' E 009°60'0 0.0
2017-Nov-08 14:58N 53°32' E 009°60'0 0.0
2017-Nov-08 14:28N 53°32' E 009°60'0 0.0
2017-Nov-08 13:58N 53°32' E 009°60'0 0.0
2017-Nov-08 13:28N 53°32' E 009°60'0 0.0
2017-Nov-08 12:58N 53°32' E 009°60'0 0.0
2017-Nov-08 12:28N 53°32' E 009°60'0 0.0
2017-Nov-08 11:58N 53°32' E 009°60'0 0.0
2017-Nov-08 11:28N 53°32' E 009°60'0 0.0
2017-Nov-08 10:58N 53°32' E 009°60'0 0.0
2017-Nov-08 10:28N 53°32' E 009°60'0 0.0
2017-Nov-08 10:01N 53°32' E 009°60'1 2.5
2017-Nov-08 09:31N 53°33' E 009°58'4 8.4
2017-Nov-08 09:01N 53°33' E 009°51'5 9.2
2017-Nov-08 08:31N 53°34' E 009°44'611.8
2017-Nov-08 08:01N 53°36' E 009°35'611.8
2017-Nov-08 07:31N 53°42' E 009°30'612.6
2017-Nov-08 07:01N 53°47' E 009°23'611.9
2017-Nov-08 06:31N 53°52' E 009°18'612.4
2017-Nov-08 06:01N 53°53' E 009°08'4 8.8
2017-Nov-08 05:31N 53°51' E 009°01'714.4
2017-Nov-08 05:00N 53°50' E 008°49'612.2
2017-Nov-08 04:30N 53°54' E 008°41'713.2
2017-Nov-08 04:00N 53°58' E 008°32'714.1
2017-Nov-08 03:30N 53°59' E 008°20'613.0
2017-Nov-08 03:00N 53°59' E 008°09'714.9
2017-Nov-08 02:30N 53°59' E 007°56'816.1
2017-Nov-08 02:00N 53°57' E 007°43'5916.7
2017-Nov-07 22:29N 53°43' E 006°06'2017.3
2017-Nov-07 21:19N 53°36' E 005°34'617.2
2017-Nov-07 21:00N 53°34' E 005°25'1417.1
2017-Nov-07 20:11N 53°30' E 005°03'317.2
2017-Nov-07 20:00N 53°28' E 004°58'917.3
2017-Nov-07 19:29N 53°24' E 004°45'  

Dump ship's entire track history